sensor_id;sensor_type;location;lat;lon;timestamp;temperature;humidity
15959;DHT22;8078;47.822;9.402;2022-09-21T00:00:52;6.60;99.90
15959;DHT22;8078;47.822;9.402;2022-09-21T00:03:18;6.60;99.90
15959;DHT22;8078;47.822;9.402;2022-09-21T00:05:44;6.60;99.90
15959;DHT22;8078;47.822;9.402;2022-09-21T00:08:11;6.60;99.90
15959;DHT22;8078;47.822;9.402;2022-09-21T00:10:38;6.60;99.90
15959;DHT22;8078;47.822;9.402;2022-09-21T00:13:04;6.60;99.90
15959;DHT22;8078;47.822;9.402;2022-09-21T00:15:31;6.60;99.90
15959;DHT22;8078;47.822;9.402;2022-09-21T00:17:58;6.60;99.90
15959;DHT22;8078;47.822;9.402;2022-09-21T00:20:25;6.60;99.90
15959;DHT22;8078;47.822;9.402;2022-09-21T00:22:51;6.50;99.90
15959;DHT22;8078;47.822;9.402;2022-09-21T00:25:17;6.50;99.90
15959;DHT22;8078;47.822;9.402;2022-09-21T00:27:43;6.50;99.90
15959;DHT22;8078;47.822;9.402;2022-09-21T00:30:09;6.50;99.90
15959;DHT22;8078;47.822;9.402;2022-09-21T00:32:36;6.50;99.90
15959;DHT22;8078;47.822;9.402;2022-09-21T00:35:03;6.40;99.90
15959;DHT22;8078;47.822;9.402;2022-09-21T00:37:30;6.40;99.90
15959;DHT22;8078;47.822;9.402;2022-09-21T00:39:55;6.30;99.90
15959;DHT22;8078;47.822;9.402;2022-09-21T00:42:22;6.20;99.90
15959;DHT22;8078;47.822;9.402;2022-09-21T00:44:48;6.10;99.90
15959;DHT22;8078;47.822;9.402;2022-09-21T00:47:33;6.10;99.90
15959;DHT22;8078;47.822;9.402;2022-09-21T00:50:03;6.00;99.90
15959;DHT22;8078;47.822;9.402;2022-09-21T00:52:32;5.90;99.90
15959;DHT22;8078;47.822;9.402;2022-09-21T00:55:12;5.90;99.90
15959;DHT22;8078;47.822;9.402;2022-09-21T00:57:40;5.90;99.90
15959;DHT22;8078;47.822;9.402;2022-09-21T01:00:07;5.80;99.90
15959;DHT22;8078;47.822;9.402;2022-09-21T01:02:34;5.80;99.90
15959;DHT22;8078;47.822;9.402;2022-09-21T01:05:00;5.70;99.90
15959;DHT22;8078;47.822;9.402;2022-09-21T01:07:29;5.70;99.90
15959;DHT22;8078;47.822;9.402;2022-09-21T01:09:58;5.60;99.90
15959;DHT22;8078;47.822;9.402;2022-09-21T01:15:27;5.60;99.90
15959;DHT22;8078;47.822;9.402;2022-09-21T01:32:08;5.40;99.90
15959;DHT22;8078;47.822;9.402;2022-09-21T01:37:13;5.30;99.90
15959;DHT22;8078;47.822;9.402;2022-09-21T01:39:42;5.20;99.90
15959;DHT22;8078;47.822;9.402;2022-09-21T01:42:09;5.20;99.90
15959;DHT22;8078;47.822;9.402;2022-09-21T01:44:38;5.20;99.90
15959;DHT22;8078;47.822;9.402;2022-09-21T01:47:06;5.20;99.90
15959;DHT22;8078;47.822;9.402;2022-09-21T01:49:36;5.20;99.90
15959;DHT22;8078;47.822;9.402;2022-09-21T01:52:10;5.20;99.90
15959;DHT22;8078;47.822;9.402;2022-09-21T01:54:51;5.20;99.90
15959;DHT22;8078;47.822;9.402;2022-09-21T01:57:42;5.10;99.90
15959;DHT22;8078;47.822;9.402;2022-09-21T02:00:09;5.10;99.90
15959;DHT22;8078;47.822;9.402;2022-09-21T02:02:40;5.10;99.90
15959;DHT22;8078;47.822;9.402;2022-09-21T02:05:07;5.00;99.90
15959;DHT22;8078;47.822;9.402;2022-09-21T02:07:33;5.00;99.90
15959;DHT22;8078;47.822;9.402;2022-09-21T02:10:00;5.10;99.90
15959;DHT22;8078;47.822;9.402;2022-09-21T02:12:27;5.10;99.90
15959;DHT22;8078;47.822;9.402;2022-09-21T02:14:53;5.10;99.90
15959;DHT22;8078;47.822;9.402;2022-09-21T02:17:30;5.10;99.90
15959;DHT22;8078;47.822;9.402;2022-09-21T02:22:45;5.00;99.90
15959;DHT22;8078;47.822;9.402;2022-09-21T02:28:04;4.90;99.90
15959;DHT22;8078;47.822;9.402;2022-09-21T02:30:34;5.00;99.90
15959;DHT22;8078;47.822;9.402;2022-09-21T02:33:09;5.00;99.90
15959;DHT22;8078;47.822;9.402;2022-09-21T02:36:03;5.00;99.90
15959;DHT22;8078;47.822;9.402;2022-09-21T02:38:33;4.90;99.90
15959;DHT22;8078;47.822;9.402;2022-09-21T02:41:13;5.00;99.90
15959;DHT22;8078;47.822;9.402;2022-09-21T02:44:10;4.90;99.90
15959;DHT22;8078;47.822;9.402;2022-09-21T02:46:45;4.90;99.90
15959;DHT22;8078;47.822;9.402;2022-09-21T02:49:26;4.80;99.90
15959;DHT22;8078;47.822;9.402;2022-09-21T02:51:57;4.80;99.90
15959;DHT22;8078;47.822;9.402;2022-09-21T02:54:29;4.80;99.90
15959;DHT22;8078;47.822;9.402;2022-09-21T02:56:55;4.90;99.90
15959;DHT22;8078;47.822;9.402;2022-09-21T02:59:22;4.90;99.90
15959;DHT22;8078;47.822;9.402;2022-09-21T03:01:48;4.90;99.90
15959;DHT22;8078;47.822;9.402;2022-09-21T03:04:15;4.90;99.90
15959;DHT22;8078;47.822;9.402;2022-09-21T03:06:40;4.90;99.90
15959;DHT22;8078;47.822;9.402;2022-09-21T03:09:06;4.90;99.90
15959;DHT22;8078;47.822;9.402;2022-09-21T03:11:32;4.90;99.90
15959;DHT22;8078;47.822;9.402;2022-09-21T03:13:59;4.90;99.90
15959;DHT22;8078;47.822;9.402;2022-09-21T03:16:25;4.90;99.90
15959;DHT22;8078;47.822;9.402;2022-09-21T03:18:50;4.90;99.90
15959;DHT22;8078;47.822;9.402;2022-09-21T03:21:16;4.90;99.90
15959;DHT22;8078;47.822;9.402;2022-09-21T03:23:42;4.90;99.90
15959;DHT22;8078;47.822;9.402;2022-09-21T03:26:08;5.00;99.90
15959;DHT22;8078;47.822;9.402;2022-09-21T03:28:33;5.00;99.90
15959;DHT22;8078;47.822;9.402;2022-09-21T03:30:59;4.90;99.90
15959;DHT22;8078;47.822;9.402;2022-09-21T03:33:25;4.90;99.90
15959;DHT22;8078;47.822;9.402;2022-09-21T03:35:51;4.90;99.90
15959;DHT22;8078;47.822;9.402;2022-09-21T03:38:18;4.90;99.90
15959;DHT22;8078;47.822;9.402;2022-09-21T03:40:48;4.90;99.90
15959;DHT22;8078;47.822;9.402;2022-09-21T03:43:15;4.90;99.90
15959;DHT22;8078;47.822;9.402;2022-09-21T03:45:41;4.90;99.90
15959;DHT22;8078;47.822;9.402;2022-09-21T03:48:08;4.80;99.90
15959;DHT22;8078;47.822;9.402;2022-09-21T03:50:33;4.80;99.90
15959;DHT22;8078;47.822;9.402;2022-09-21T03:52:59;4.80;99.90
15959;DHT22;8078;47.822;9.402;2022-09-21T03:55:25;4.80;99.90
15959;DHT22;8078;47.822;9.402;2022-09-21T03:57:50;4.80;99.90
15959;DHT22;8078;47.822;9.402;2022-09-21T04:00:16;4.80;99.90
15959;DHT22;8078;47.822;9.402;2022-09-21T04:02:42;4.80;99.90
15959;DHT22;8078;47.822;9.402;2022-09-21T04:05:09;4.70;99.90
15959;DHT22;8078;47.822;9.402;2022-09-21T04:07:36;4.70;99.90
15959;DHT22;8078;47.822;9.402;2022-09-21T04:10:03;4.70;99.90
15959;DHT22;8078;47.822;9.402;2022-09-21T04:12:30;4.70;99.90
15959;DHT22;8078;47.822;9.402;2022-09-21T04:14:56;4.70;99.90
15959;DHT22;8078;47.822;9.402;2022-09-21T04:17:22;4.70;99.90
15959;DHT22;8078;47.822;9.402;2022-09-21T04:19:47;4.70;99.90
15959;DHT22;8078;47.822;9.402;2022-09-21T04:22:13;4.80;99.90
15959;DHT22;8078;47.822;9.402;2022-09-21T04:24:39;4.80;99.90
15959;DHT22;8078;47.822;9.402;2022-09-21T04:27:09;4.80;99.90
15959;DHT22;8078;47.822;9.402;2022-09-21T04:29:35;4.80;99.90
15959;DHT22;8078;47.822;9.402;2022-09-21T04:32:02;4.80;99.90
15959;DHT22;8078;47.822;9.402;2022-09-21T04:34:27;4.80;99.90
15959;DHT22;8078;47.822;9.402;2022-09-21T04:36:54;4.70;99.90
15959;DHT22;8078;47.822;9.402;2022-09-21T04:39:20;4.70;99.90
15959;DHT22;8078;47.822;9.402;2022-09-21T04:41:45;4.70;99.90
15959;DHT22;8078;47.822;9.402;2022-09-21T04:44:11;4.60;99.90
15959;DHT22;8078;47.822;9.402;2022-09-21T04:46:36;4.50;99.90
15959;DHT22;8078;47.822;9.402;2022-09-21T04:49:02;4.50;99.90
15959;DHT22;8078;47.822;9.402;2022-09-21T04:51:28;4.40;99.90
15959;DHT22;8078;47.822;9.402;2022-09-21T04:53:54;4.40;99.90
15959;DHT22;8078;47.822;9.402;2022-09-21T04:56:19;4.40;99.90
15959;DHT22;8078;47.822;9.402;2022-09-21T04:58:45;4.40;99.90
15959;DHT22;8078;47.822;9.402;2022-09-21T05:01:11;4.30;99.90
15959;DHT22;8078;47.822;9.402;2022-09-21T05:03:37;4.30;99.90
15959;DHT22;8078;47.822;9.402;2022-09-21T05:06:03;4.30;99.90
15959;DHT22;8078;47.822;9.402;2022-09-21T05:08:29;4.30;99.90
15959;DHT22;8078;47.822;9.402;2022-09-21T05:11:16;4.30;99.90
15959;DHT22;8078;47.822;9.402;2022-09-21T05:13:43;4.30;99.90
15959;DHT22;8078;47.822;9.402;2022-09-21T05:16:09;4.30;99.90
15959;DHT22;8078;47.822;9.402;2022-09-21T05:18:34;4.30;99.90
15959;DHT22;8078;47.822;9.402;2022-09-21T05:21:01;4.30;99.90
15959;DHT22;8078;47.822;9.402;2022-09-21T05:23:29;4.40;99.90
15959;DHT22;8078;47.822;9.402;2022-09-21T05:25:56;4.40;99.90
15959;DHT22;8078;47.822;9.402;2022-09-21T05:28:22;4.50;99.90
15959;DHT22;8078;47.822;9.402;2022-09-21T05:33:39;4.60;99.90
15959;DHT22;8078;47.822;9.402;2022-09-21T05:36:10;4.70;99.90
15959;DHT22;8078;47.822;9.402;2022-09-21T05:38:40;4.70;99.90
15959;DHT22;8078;47.822;9.402;2022-09-21T05:41:07;4.80;99.90
15959;DHT22;8078;47.822;9.402;2022-09-21T05:43:33;4.80;99.90
15959;DHT22;8078;47.822;9.402;2022-09-21T05:46:08;4.90;99.90
15959;DHT22;8078;47.822;9.402;2022-09-21T05:48:40;5.00;99.90
15959;DHT22;8078;47.822;9.402;2022-09-21T05:51:19;5.10;99.90
15959;DHT22;8078;47.822;9.402;2022-09-21T05:53:58;5.20;99.90
15959;DHT22;8078;47.822;9.402;2022-09-21T05:59:11;5.40;99.90
15959;DHT22;8078;47.822;9.402;2022-09-21T06:01:57;5.60;99.90
15959;DHT22;8078;47.822;9.402;2022-09-21T06:04:24;5.70;99.90
15959;DHT22;8078;47.822;9.402;2022-09-21T06:06:50;5.80;99.90
15959;DHT22;8078;47.822;9.402;2022-09-21T06:09:15;5.80;99.90
15959;DHT22;8078;47.822;9.402;2022-09-21T06:11:41;5.90;99.90
15959;DHT22;8078;47.822;9.402;2022-09-21T06:14:06;6.00;99.90
15959;DHT22;8078;47.822;9.402;2022-09-21T06:16:39;6.10;99.90
15959;DHT22;8078;47.822;9.402;2022-09-21T06:19:06;6.20;99.90
15959;DHT22;8078;47.822;9.402;2022-09-21T06:21:35;6.30;99.90
15959;DHT22;8078;47.822;9.402;2022-09-21T06:24:00;6.40;99.90
15959;DHT22;8078;47.822;9.402;2022-09-21T06:26:26;6.50;99.90
15959;DHT22;8078;47.822;9.402;2022-09-21T06:28:53;6.60;99.90
15959;DHT22;8078;47.822;9.402;2022-09-21T06:31:18;6.70;99.90
15959;DHT22;8078;47.822;9.402;2022-09-21T06:33:44;6.80;99.90
15959;DHT22;8078;47.822;9.402;2022-09-21T06:36:09;6.80;99.90
15959;DHT22;8078;47.822;9.402;2022-09-21T06:38:35;6.90;99.90
15959;DHT22;8078;47.822;9.402;2022-09-21T06:41:02;7.00;99.90
15959;DHT22;8078;47.822;9.402;2022-09-21T06:43:28;7.10;99.90
15959;DHT22;8078;47.822;9.402;2022-09-21T06:46:01;7.20;99.90
15959;DHT22;8078;47.822;9.402;2022-09-21T06:48:27;7.20;99.90
15959;DHT22;8078;47.822;9.402;2022-09-21T06:50:58;7.30;99.90
15959;DHT22;8078;47.822;9.402;2022-09-21T06:53:24;7.50;99.90
15959;DHT22;8078;47.822;9.402;2022-09-21T06:55:50;7.60;99.90
15959;DHT22;8078;47.822;9.402;2022-09-21T06:58:16;7.70;99.90
15959;DHT22;8078;47.822;9.402;2022-09-21T07:00:42;7.80;99.90
15959;DHT22;8078;47.822;9.402;2022-09-21T07:03:11;7.80;99.90
15959;DHT22;8078;47.822;9.402;2022-09-21T07:05:37;7.90;99.90
15959;DHT22;8078;47.822;9.402;2022-09-21T07:08:03;8.00;99.90
15959;DHT22;8078;47.822;9.402;2022-09-21T07:10:29;8.00;99.90
15959;DHT22;8078;47.822;9.402;2022-09-21T07:12:55;8.10;99.90
15959;DHT22;8078;47.822;9.402;2022-09-21T07:15:20;8.20;99.90
15959;DHT22;8078;47.822;9.402;2022-09-21T07:17:46;8.30;99.90
15959;DHT22;8078;47.822;9.402;2022-09-21T07:20:11;8.40;99.90
15959;DHT22;8078;47.822;9.402;2022-09-21T07:22:37;8.40;99.90
15959;DHT22;8078;47.822;9.402;2022-09-21T07:25:04;8.50;99.90
15959;DHT22;8078;47.822;9.402;2022-09-21T07:27:31;8.60;99.90
15959;DHT22;8078;47.822;9.402;2022-09-21T07:29:57;8.70;99.90
15959;DHT22;8078;47.822;9.402;2022-09-21T07:32:23;8.70;99.90
15959;DHT22;8078;47.822;9.402;2022-09-21T07:34:50;8.80;99.90
15959;DHT22;8078;47.822;9.402;2022-09-21T07:37:18;9.00;99.90
15959;DHT22;8078;47.822;9.402;2022-09-21T07:39:43;9.10;99.90
15959;DHT22;8078;47.822;9.402;2022-09-21T07:42:09;9.30;99.90
15959;DHT22;8078;47.822;9.402;2022-09-21T07:44:35;9.30;99.90
15959;DHT22;8078;47.822;9.402;2022-09-21T07:47:00;9.30;99.90
15959;DHT22;8078;47.822;9.402;2022-09-21T07:49:27;9.40;99.90
15959;DHT22;8078;47.822;9.402;2022-09-21T07:51:53;9.50;99.90
15959;DHT22;8078;47.822;9.402;2022-09-21T07:54:18;9.50;99.90
15959;DHT22;8078;47.822;9.402;2022-09-21T07:56:44;9.60;99.90
15959;DHT22;8078;47.822;9.402;2022-09-21T07:59:29;9.70;99.90
15959;DHT22;8078;47.822;9.402;2022-09-21T08:01:57;9.80;99.90
15959;DHT22;8078;47.822;9.402;2022-09-21T08:04:22;9.90;99.90
15959;DHT22;8078;47.822;9.402;2022-09-21T08:06:48;9.90;99.90
15959;DHT22;8078;47.822;9.402;2022-09-21T08:09:13;10.00;99.90
15959;DHT22;8078;47.822;9.402;2022-09-21T08:11:39;10.10;99.90
15959;DHT22;8078;47.822;9.402;2022-09-21T08:14:08;10.10;99.90
15959;DHT22;8078;47.822;9.402;2022-09-21T08:16:37;10.10;99.90
15959;DHT22;8078;47.822;9.402;2022-09-21T08:19:03;10.30;99.90
15959;DHT22;8078;47.822;9.402;2022-09-21T08:21:29;10.40;99.90
15959;DHT22;8078;47.822;9.402;2022-09-21T08:23:55;10.50;99.90
15959;DHT22;8078;47.822;9.402;2022-09-21T08:26:21;10.60;99.90
15959;DHT22;8078;47.822;9.402;2022-09-21T08:28:51;10.60;99.90
15959;DHT22;8078;47.822;9.402;2022-09-21T08:31:19;10.60;99.90
15959;DHT22;8078;47.822;9.402;2022-09-21T08:33:46;10.60;99.90
15959;DHT22;8078;47.822;9.402;2022-09-21T08:36:11;10.70;99.90
15959;DHT22;8078;47.822;9.402;2022-09-21T08:38:38;10.70;99.90
15959;DHT22;8078;47.822;9.402;2022-09-21T08:41:18;10.80;99.90
15959;DHT22;8078;47.822;9.402;2022-09-21T08:43:54;10.90;99.90
15959;DHT22;8078;47.822;9.402;2022-09-21T08:46:24;11.10;99.90
15959;DHT22;8078;47.822;9.402;2022-09-21T08:48:57;11.30;99.90
15959;DHT22;8078;47.822;9.402;2022-09-21T08:51:27;11.30;99.90
15959;DHT22;8078;47.822;9.402;2022-09-21T08:53:58;11.30;99.90
15959;DHT22;8078;47.822;9.402;2022-09-21T08:56:26;11.20;99.90
15959;DHT22;8078;47.822;9.402;2022-09-21T08:58:52;11.30;99.90
15959;DHT22;8078;47.822;9.402;2022-09-21T09:01:47;11.30;99.90
15959;DHT22;8078;47.822;9.402;2022-09-21T09:10:02;11.40;99.90
15959;DHT22;8078;47.822;9.402;2022-09-21T09:15:16;11.60;99.90
15959;DHT22;8078;47.822;9.402;2022-09-21T09:18:07;11.60;99.90
15959;DHT22;8078;47.822;9.402;2022-09-21T09:20:40;11.80;99.90
15959;DHT22;8078;47.822;9.402;2022-09-21T09:23:26;12.00;99.90
15959;DHT22;8078;47.822;9.402;2022-09-21T09:25:58;12.00;99.90
15959;DHT22;8078;47.822;9.402;2022-09-21T09:28:40;12.30;99.90
15959;DHT22;8078;47.822;9.402;2022-09-21T09:31:24;12.50;99.90
15959;DHT22;8078;47.822;9.402;2022-09-21T09:34:14;12.40;99.90
15959;DHT22;8078;47.822;9.402;2022-09-21T09:36:45;12.40;99.90
15959;DHT22;8078;47.822;9.402;2022-09-21T09:39:13;12.40;99.90
15959;DHT22;8078;47.822;9.402;2022-09-21T09:42:07;12.50;99.90
15959;DHT22;8078;47.822;9.402;2022-09-21T09:47:41;12.60;99.90
15959;DHT22;8078;47.822;9.402;2022-09-21T09:50:10;12.70;99.90
15959;DHT22;8078;47.822;9.402;2022-09-21T09:52:37;12.90;99.90
15959;DHT22;8078;47.822;9.402;2022-09-21T09:55:25;12.80;99.90
15959;DHT22;8078;47.822;9.402;2022-09-21T09:57:55;12.70;99.90
15959;DHT22;8078;47.822;9.402;2022-09-21T10:00:21;12.70;99.90
15959;DHT22;8078;47.822;9.402;2022-09-21T10:02:54;12.60;99.90
15959;DHT22;8078;47.822;9.402;2022-09-21T10:05:23;12.70;99.90
15959;DHT22;8078;47.822;9.402;2022-09-21T10:07:50;12.70;99.90
15959;DHT22;8078;47.822;9.402;2022-09-21T10:15:59;13.10;99.90
15959;DHT22;8078;47.822;9.402;2022-09-21T10:21:09;13.40;99.90
15959;DHT22;8078;47.822;9.402;2022-09-21T10:23:46;13.50;99.90
15959;DHT22;8078;47.822;9.402;2022-09-21T10:26:13;13.40;99.90
15959;DHT22;8078;47.822;9.402;2022-09-21T10:29:15;13.40;99.90
15959;DHT22;8078;47.822;9.402;2022-09-21T10:31:57;13.70;99.90
15959;DHT22;8078;47.822;9.402;2022-09-21T10:34:24;13.50;99.90
15959;DHT22;8078;47.822;9.402;2022-09-21T10:36:54;13.60;99.90
15959;DHT22;8078;47.822;9.402;2022-09-21T10:39:23;13.70;99.90
15959;DHT22;8078;47.822;9.402;2022-09-21T10:41:56;13.90;99.90
15959;DHT22;8078;47.822;9.402;2022-09-21T10:44:26;13.90;99.90
15959;DHT22;8078;47.822;9.402;2022-09-21T10:46:52;14.00;99.90
15959;DHT22;8078;47.822;9.402;2022-09-21T10:49:21;14.00;99.90
15959;DHT22;8078;47.822;9.402;2022-09-21T10:51:50;13.70;99.90
15959;DHT22;8078;47.822;9.402;2022-09-21T10:54:22;13.50;99.90
15959;DHT22;8078;47.822;9.402;2022-09-21T10:57:02;13.50;99.90
15959;DHT22;8078;47.822;9.402;2022-09-21T10:59:30;13.70;99.90
15959;DHT22;8078;47.822;9.402;2022-09-21T11:01:58;13.90;99.90
15959;DHT22;8078;47.822;9.402;2022-09-21T11:07:48;14.00;99.90
15959;DHT22;8078;47.822;9.402;2022-09-21T11:13:08;14.60;99.90
15959;DHT22;8078;47.822;9.402;2022-09-21T11:21:29;14.90;99.90
15959;DHT22;8078;47.822;9.402;2022-09-21T11:38:12;14.90;99.90
15959;DHT22;8078;47.822;9.402;2022-09-21T11:54:28;15.10;99.90
15959;DHT22;8078;47.822;9.402;2022-09-21T12:05:40;15.00;99.90
15959;DHT22;8078;47.822;9.402;2022-09-21T12:11:01;15.40;99.90
15959;DHT22;8078;47.822;9.402;2022-09-21T12:19:08;15.70;99.90
15959;DHT22;8078;47.822;9.402;2022-09-21T12:21:41;15.80;99.90
15959;DHT22;8078;47.822;9.402;2022-09-21T12:24:16;15.80;99.90
15959;DHT22;8078;47.822;9.402;2022-09-21T12:26:46;15.60;99.90
15959;DHT22;8078;47.822;9.402;2022-09-21T12:29:27;15.80;99.90
15959;DHT22;8078;47.822;9.402;2022-09-21T12:32:17;16.10;99.90
15959;DHT22;8078;47.822;9.402;2022-09-21T12:34:52;16.00;99.90
15959;DHT22;8078;47.822;9.402;2022-09-21T12:37:43;15.80;99.90
15959;DHT22;8078;47.822;9.402;2022-09-21T12:40:27;15.60;99.90
15959;DHT22;8078;47.822;9.402;2022-09-21T12:45:47;16.00;99.90
15959;DHT22;8078;47.822;9.402;2022-09-21T12:48:33;15.80;99.90
15959;DHT22;8078;47.822;9.402;2022-09-21T12:53:56;16.00;99.90
15959;DHT22;8078;47.822;9.402;2022-09-21T12:56:47;16.00;99.90
15959;DHT22;8078;47.822;9.402;2022-09-21T12:59:46;16.20;99.90
15959;DHT22;8078;47.822;9.402;2022-09-21T13:02:19;16.00;99.90
15959;DHT22;8078;47.822;9.402;2022-09-21T13:08:16;16.20;99.90
15959;DHT22;8078;47.822;9.402;2022-09-21T13:10:45;16.00;99.90
15959;DHT22;8078;47.822;9.402;2022-09-21T13:15:58;16.00;99.90
15959;DHT22;8078;47.822;9.402;2022-09-21T13:18:33;16.00;99.90
15959;DHT22;8078;47.822;9.402;2022-09-21T13:21:01;16.10;99.90
15959;DHT22;8078;47.822;9.402;2022-09-21T13:23:38;15.90;99.90
15959;DHT22;8078;47.822;9.402;2022-09-21T13:26:11;15.70;99.90
15959;DHT22;8078;47.822;9.402;2022-09-21T13:34:36;16.00;99.90
15959;DHT22;8078;47.822;9.402;2022-09-21T13:44:55;16.60;99.90
15959;DHT22;8078;47.822;9.402;2022-09-21T13:47:42;16.20;99.90
15959;DHT22;8078;47.822;9.402;2022-09-21T13:52:50;16.10;99.90
15959;DHT22;8078;47.822;9.402;2022-09-21T13:55:40;16.40;99.90
15959;DHT22;8078;47.822;9.402;2022-09-21T13:58:20;16.60;99.90
15959;DHT22;8078;47.822;9.402;2022-09-21T14:03:27;16.90;99.90
15959;DHT22;8078;47.822;9.402;2022-09-21T14:06:08;16.70;99.90
15959;DHT22;8078;47.822;9.402;2022-09-21T14:08:50;16.40;99.90
15959;DHT22;8078;47.822;9.402;2022-09-21T14:11:21;16.50;99.90
15959;DHT22;8078;47.822;9.402;2022-09-21T14:14:11;16.10;99.90
15959;DHT22;8078;47.822;9.402;2022-09-21T14:29:57;14.90;99.90
15959;DHT22;8078;47.822;9.402;2022-09-21T14:32:36;15.10;99.90
15959;DHT22;8078;47.822;9.402;2022-09-21T14:35:11;15.40;99.90
15959;DHT22;8078;47.822;9.402;2022-09-21T14:37:49;15.60;99.90
15959;DHT22;8078;47.822;9.402;2022-09-21T14:40:22;16.20;99.90
15959;DHT22;8078;47.822;9.402;2022-09-21T14:42:51;16.60;99.90
15959;DHT22;8078;47.822;9.402;2022-09-21T14:45:21;17.20;99.90
15959;DHT22;8078;47.822;9.402;2022-09-21T14:48:12;17.60;99.90
15959;DHT22;8078;47.822;9.402;2022-09-21T14:50:51;17.30;99.90
15959;DHT22;8078;47.822;9.402;2022-09-21T14:56:58;17.40;99.90
15959;DHT22;8078;47.822;9.402;2022-09-21T14:59:47;17.30;99.90
15959;DHT22;8078;47.822;9.402;2022-09-21T15:02:20;17.50;99.90
15959;DHT22;8078;47.822;9.402;2022-09-21T15:04:53;17.10;99.90
15959;DHT22;8078;47.822;9.402;2022-09-21T15:07:27;17.20;99.90
15959;DHT22;8078;47.822;9.402;2022-09-21T15:10:22;17.10;99.90
15959;DHT22;8078;47.822;9.402;2022-09-21T15:19:25;17.30;99.90
15959;DHT22;8078;47.822;9.402;2022-09-21T15:22:18;17.40;99.90
15959;DHT22;8078;47.822;9.402;2022-09-21T15:24:56;17.40;99.90
15959;DHT22;8078;47.822;9.402;2022-09-21T15:27:27;17.50;99.90
15959;DHT22;8078;47.822;9.402;2022-09-21T15:29:58;17.70;99.90
15959;DHT22;8078;47.822;9.402;2022-09-21T15:32:39;18.00;99.90
15959;DHT22;8078;47.822;9.402;2022-09-21T15:37:39;17.80;99.90
15959;DHT22;8078;47.822;9.402;2022-09-21T15:40:18;17.70;99.90
15959;DHT22;8078;47.822;9.402;2022-09-21T15:42:59;17.60;99.90
15959;DHT22;8078;47.822;9.402;2022-09-21T15:45:27;17.60;99.90
15959;DHT22;8078;47.822;9.402;2022-09-21T15:47:54;17.90;99.90
15959;DHT22;8078;47.822;9.402;2022-09-21T15:50:21;18.10;99.90
15959;DHT22;8078;47.822;9.402;2022-09-21T15:52:53;17.90;99.90
15959;DHT22;8078;47.822;9.402;2022-09-21T15:55:22;18.30;99.90
15959;DHT22;8078;47.822;9.402;2022-09-21T15:57:53;18.20;99.90
15959;DHT22;8078;47.822;9.402;2022-09-21T16:00:24;17.60;99.90
15959;DHT22;8078;47.822;9.402;2022-09-21T16:03:18;17.20;99.90
15959;DHT22;8078;47.822;9.402;2022-09-21T16:05:50;16.90;99.90
15959;DHT22;8078;47.822;9.402;2022-09-21T16:08:28;16.60;99.90
15959;DHT22;8078;47.822;9.402;2022-09-21T16:11:15;16.30;99.90
15959;DHT22;8078;47.822;9.402;2022-09-21T16:13:42;15.60;99.90
15959;DHT22;8078;47.822;9.402;2022-09-21T16:16:26;15.20;99.90
15959;DHT22;8078;47.822;9.402;2022-09-21T16:18:54;14.50;99.90
15959;DHT22;8078;47.822;9.402;2022-09-21T16:23:58;13.70;99.90
15959;DHT22;8078;47.822;9.402;2022-09-21T16:26:37;13.60;99.90
15959;DHT22;8078;47.822;9.402;2022-09-21T16:31:43;13.40;99.90
15959;DHT22;8078;47.822;9.402;2022-09-21T16:34:29;13.30;99.90
15959;DHT22;8078;47.822;9.402;2022-09-21T16:37:17;13.30;99.90
15959;DHT22;8078;47.822;9.402;2022-09-21T16:39:53;13.30;99.90
15959;DHT22;8078;47.822;9.402;2022-09-21T16:42:20;13.00;99.90
15959;DHT22;8078;47.822;9.402;2022-09-21T16:44:46;12.80;99.90
15959;DHT22;8078;47.822;9.402;2022-09-21T16:47:15;12.40;99.90
15959;DHT22;8078;47.822;9.402;2022-09-21T16:49:42;11.90;99.90
15959;DHT22;8078;47.822;9.402;2022-09-21T16:52:07;11.40;99.90
15959;DHT22;8078;47.822;9.402;2022-09-21T16:54:33;10.90;99.90
15959;DHT22;8078;47.822;9.402;2022-09-21T16:57:00;10.60;99.90
15959;DHT22;8078;47.822;9.402;2022-09-21T16:59:27;10.30;99.90
15959;DHT22;8078;47.822;9.402;2022-09-21T17:01:54;10.10;99.90
15959;DHT22;8078;47.822;9.402;2022-09-21T17:04:22;9.90;99.90
15959;DHT22;8078;47.822;9.402;2022-09-21T17:06:52;9.70;99.90
15959;DHT22;8078;47.822;9.402;2022-09-21T17:11:48;9.50;99.90
15959;DHT22;8078;47.822;9.402;2022-09-21T17:14:16;9.40;99.90
15959;DHT22;8078;47.822;9.402;2022-09-21T17:16:48;9.40;99.90
15959;DHT22;8078;47.822;9.402;2022-09-21T17:19:15;9.30;99.90
15959;DHT22;8078;47.822;9.402;2022-09-21T17:21:40;9.20;99.90
15959;DHT22;8078;47.822;9.402;2022-09-21T17:24:06;9.10;99.90
15959;DHT22;8078;47.822;9.402;2022-09-21T17:26:32;9.00;99.90
15959;DHT22;8078;47.822;9.402;2022-09-21T17:28:59;9.00;99.90
15959;DHT22;8078;47.822;9.402;2022-09-21T17:31:26;9.00;99.90
15959;DHT22;8078;47.822;9.402;2022-09-21T17:33:52;8.90;99.90
15959;DHT22;8078;47.822;9.402;2022-09-21T17:36:18;8.90;99.90
15959;DHT22;8078;47.822;9.402;2022-09-21T17:38:43;8.80;99.90
15959;DHT22;8078;47.822;9.402;2022-09-21T17:43:49;8.60;99.90
15959;DHT22;8078;47.822;9.402;2022-09-21T17:46:41;8.60;99.90
15959;DHT22;8078;47.822;9.402;2022-09-21T17:49:09;8.50;99.90
15959;DHT22;8078;47.822;9.402;2022-09-21T17:51:36;8.50;99.90
15959;DHT22;8078;47.822;9.402;2022-09-21T17:54:20;8.40;99.90
15959;DHT22;8078;47.822;9.402;2022-09-21T17:59:31;8.30;99.90
15959;DHT22;8078;47.822;9.402;2022-09-21T18:01:57;8.30;99.90
15959;DHT22;8078;47.822;9.402;2022-09-21T18:04:28;8.20;99.90
15959;DHT22;8078;47.822;9.402;2022-09-21T18:06:55;8.20;99.90
15959;DHT22;8078;47.822;9.402;2022-09-21T18:09:20;8.20;99.90
15959;DHT22;8078;47.822;9.402;2022-09-21T18:15:20;8.20;99.90
15959;DHT22;8078;47.822;9.402;2022-09-21T18:23:15;8.00;99.90
15959;DHT22;8078;47.822;9.402;2022-09-21T18:25:43;8.00;99.90
15959;DHT22;8078;47.822;9.402;2022-09-21T18:28:37;8.00;99.90
15959;DHT22;8078;47.822;9.402;2022-09-21T18:31:22;8.00;99.90
15959;DHT22;8078;47.822;9.402;2022-09-21T18:36:47;7.90;99.90
15959;DHT22;8078;47.822;9.402;2022-09-21T18:39:34;7.90;99.90
15959;DHT22;8078;47.822;9.402;2022-09-21T18:42:28;7.90;99.90
15959;DHT22;8078;47.822;9.402;2022-09-21T18:47:56;7.90;99.90
15959;DHT22;8078;47.822;9.402;2022-09-21T18:53:35;8.00;99.90
15959;DHT22;8078;47.822;9.402;2022-09-21T18:56:06;7.90;99.90
15959;DHT22;8078;47.822;9.402;2022-09-21T18:58:33;7.90;99.90
15959;DHT22;8078;47.822;9.402;2022-09-21T19:00:59;7.80;99.90
15959;DHT22;8078;47.822;9.402;2022-09-21T19:03:24;7.80;99.90
15959;DHT22;8078;47.822;9.402;2022-09-21T19:09:12;7.80;99.90
15959;DHT22;8078;47.822;9.402;2022-09-21T19:12:18;7.80;99.90
15959;DHT22;8078;47.822;9.402;2022-09-21T19:15:08;7.70;99.90
15959;DHT22;8078;47.822;9.402;2022-09-21T19:20:42;7.70;99.90
15959;DHT22;8078;47.822;9.402;2022-09-21T19:25:44;7.70;99.90
15959;DHT22;8078;47.822;9.402;2022-09-21T19:30:57;7.60;99.90
15959;DHT22;8078;47.822;9.402;2022-09-21T19:33:31;7.60;99.90
15959;DHT22;8078;47.822;9.402;2022-09-21T19:35:57;7.50;99.90
15959;DHT22;8078;47.822;9.402;2022-09-21T19:38:25;7.50;99.90
15959;DHT22;8078;47.822;9.402;2022-09-21T19:40:58;7.50;99.90
15959;DHT22;8078;47.822;9.402;2022-09-21T19:46:29;7.30;99.90
15959;DHT22;8078;47.822;9.402;2022-09-21T19:49:15;7.40;99.90